sensor_id;sensor_type;location;lat;lon;timestamp;P1;durP1;ratioP1;P2;durP2;ratioP2
21030;SDS011;61072;47.808;7.636;2023-08-01T05:47:30;6.70;;;2.95;;
21030;SDS011;61072;47.808;7.636;2023-08-01T05:49:57;6.47;;;3.20;;
21030;SDS011;61072;47.808;7.636;2023-08-01T05:52:23;6.45;;;2.78;;
21030;SDS011;61072;47.808;7.636;2023-08-01T05:54:50;5.07;;;3.30;;
21030;SDS011;61072;47.808;7.636;2023-08-01T05:57:17;9.40;;;3.60;;
21030;SDS011;61072;47.808;7.636;2023-08-01T05:59:44;10.80;;;3.40;;
21030;SDS011;61072;47.808;7.636;2023-08-01T06:02:10;9.20;;;3.75;;
21030;SDS011;61072;47.808;7.636;2023-08-01T06:04:37;5.68;;;3.13;;
21030;SDS011;61072;47.808;7.636;2023-08-01T06:07:05;5.72;;;3.20;;
21030;SDS011;61072;47.808;7.636;2023-08-01T06:09:32;7.53;;;3.30;;
21030;SDS011;61072;47.808;7.636;2023-08-01T06:11:58;7.15;;;3.20;;
21030;SDS011;61072;47.808;7.636;2023-08-01T06:14:25;6.97;;;2.83;;
21030;SDS011;61072;47.808;7.636;2023-08-01T06:16:52;5.72;;;3.53;;
21030;SDS011;61072;47.808;7.636;2023-08-01T06:19:18;6.03;;;3.35;;
21030;SDS011;61072;47.808;7.636;2023-08-01T06:21:45;7.57;;;3.00;;
21030;SDS011;61072;47.808;7.636;2023-08-01T06:24:12;5.43;;;3.25;;
21030;SDS011;61072;47.808;7.636;2023-08-01T06:26:39;7.07;;;3.63;;
21030;SDS011;61072;47.808;7.636;2023-08-01T06:29:06;5.10;;;2.97;;
21030;SDS011;61072;47.808;7.636;2023-08-01T06:31:32;7.65;;;3.20;;
21030;SDS011;61072;47.808;7.636;2023-08-01T06:33:59;6.80;;;3.20;;
21030;SDS011;61072;47.808;7.636;2023-08-01T06:36:26;7.35;;;3.20;;
21030;SDS011;61072;47.808;7.636;2023-08-01T06:38:52;5.18;;;2.97;;
21030;SDS011;61072;47.808;7.636;2023-08-01T06:41:19;9.15;;;3.30;;
21030;SDS011;61072;47.808;7.636;2023-08-01T06:43:46;8.90;;;3.30;;
21030;SDS011;61072;47.808;7.636;2023-08-01T06:46:12;5.68;;;3.00;;
21030;SDS011;61072;47.808;7.636;2023-08-01T06:48:39;6.63;;;3.50;;
21030;SDS011;61072;47.808;7.636;2023-08-01T06:51:06;7.22;;;3.45;;
21030;SDS011;61072;47.808;7.636;2023-08-01T06:53:32;5.40;;;3.10;;
21030;SDS011;61072;47.808;7.636;2023-08-01T06:55:59;8.18;;;3.20;;
21030;SDS011;61072;47.808;7.636;2023-08-01T06:58:26;5.65;;;3.13;;
21030;SDS011;61072;47.808;7.636;2023-08-01T07:00:53;5.20;;;3.25;;
21030;SDS011;61072;47.808;7.636;2023-08-01T07:03:19;5.93;;;3.00;;
21030;SDS011;61072;47.808;7.636;2023-08-01T07:05:46;6.00;;;2.65;;
21030;SDS011;61072;47.808;7.636;2023-08-01T07:08:13;6.88;;;3.08;;
21030;SDS011;61072;47.808;7.636;2023-08-01T07:10:39;4.72;;;2.70;;
21030;SDS011;61072;47.808;7.636;2023-08-01T07:13:06;5.25;;;2.60;;
21030;SDS011;61072;47.808;7.636;2023-08-01T07:15:33;4.25;;;2.45;;
21030;SDS011;61072;47.808;7.636;2023-08-01T07:18:00;5.95;;;3.17;;
21030;SDS011;61072;47.808;7.636;2023-08-01T07:20:29;5.55;;;2.70;;
21030;SDS011;61072;47.808;7.636;2023-08-01T07:22:56;7.40;;;3.08;;
21030;SDS011;61072;47.808;7.636;2023-08-01T07:25:23;5.55;;;3.10;;
21030;SDS011;61072;47.808;7.636;2023-08-01T07:27:51;5.05;;;2.60;;
21030;SDS011;61072;47.808;7.636;2023-08-01T07:30:18;4.97;;;2.75;;
21030;SDS011;61072;47.808;7.636;2023-08-01T07:32:44;4.82;;;2.58;;
21030;SDS011;61072;47.808;7.636;2023-08-01T07:35:11;4.82;;;2.50;;
21030;SDS011;61072;47.808;7.636;2023-08-01T07:37:39;5.45;;;2.85;;
21030;SDS011;61072;47.808;7.636;2023-08-01T07:40:06;6.25;;;2.97;;
21030;SDS011;61072;47.808;7.636;2023-08-01T07:42:33;5.47;;;2.42;;
21030;SDS011;61072;47.808;7.636;2023-08-01T07:45:00;4.85;;;2.70;;
21030;SDS011;61072;47.808;7.636;2023-08-01T07:47:26;4.75;;;2.67;;
21030;SDS011;61072;47.808;7.636;2023-08-01T07:49:53;4.97;;;2.63;;
21030;SDS011;61072;47.808;7.636;2023-08-01T07:52:20;4.80;;;2.65;;
21030;SDS011;61072;47.808;7.636;2023-08-01T07:54:46;6.15;;;2.90;;
21030;SDS011;61072;47.808;7.636;2023-08-01T07:57:13;5.60;;;2.60;;
21030;SDS011;61072;47.808;7.636;2023-08-01T07:59:40;6.70;;;3.00;;
21030;SDS011;61072;47.808;7.636;2023-08-01T08:02:07;7.70;;;3.03;;
21030;SDS011;61072;47.808;7.636;2023-08-01T08:04:33;5.03;;;2.47;;
21030;SDS011;61072;47.808;7.636;2023-08-01T08:07:00;5.32;;;2.80;;
21030;SDS011;61072;47.808;7.636;2023-08-01T08:09:27;3.70;;;2.20;;
21030;SDS011;61072;47.808;7.636;2023-08-01T08:11:53;9.63;;;2.95;;
21030;SDS011;61072;47.808;7.636;2023-08-01T08:14:23;4.88;;;2.67;;
21030;SDS011;61072;47.808;7.636;2023-08-01T08:16:50;3.65;;;2.35;;
21030;SDS011;61072;47.808;7.636;2023-08-01T08:19:17;5.63;;;3.53;;
21030;SDS011;61072;47.808;7.636;2023-08-01T08:21:44;4.97;;;2.60;;
21030;SDS011;61072;47.808;7.636;2023-08-01T08:24:11;4.38;;;2.10;;
21030;SDS011;61072;47.808;7.636;2023-08-01T08:26:37;4.70;;;2.50;;
21030;SDS011;61072;47.808;7.636;2023-08-01T08:29:06;4.88;;;2.10;;
21030;SDS011;61072;47.808;7.636;2023-08-01T08:31:33;3.13;;;1.90;;
21030;SDS011;61072;47.808;7.636;2023-08-01T08:34:00;2.95;;;2.17;;
21030;SDS011;61072;47.808;7.636;2023-08-01T08:36:26;3.78;;;2.05;;
21030;SDS011;61072;47.808;7.636;2023-08-01T08:38:53;3.35;;;2.30;;
21030;SDS011;61072;47.808;7.636;2023-08-01T08:41:21;4.32;;;2.28;;
21030;SDS011;61072;47.808;7.636;2023-08-01T08:43:52;5.18;;;2.13;;
21030;SDS011;61072;47.808;7.636;2023-08-01T08:46:23;4.25;;;2.03;;
21030;SDS011;61072;47.808;7.636;2023-08-01T08:48:55;3.35;;;1.98;;
21030;SDS011;61072;47.808;7.636;2023-08-01T08:51:23;2.53;;;2.00;;
21030;SDS011;61072;47.808;7.636;2023-08-01T08:53:53;2.58;;;1.95;;
21030;SDS011;61072;47.808;7.636;2023-08-01T08:56:22;3.28;;;1.83;;
21030;SDS011;61072;47.808;7.636;2023-08-01T08:58:49;4.00;;;2.72;;
21030;SDS011;61072;47.808;7.636;2023-08-01T09:01:17;3.33;;;2.05;;
21030;SDS011;61072;47.808;7.636;2023-08-01T09:03:44;2.75;;;1.70;;
21030;SDS011;61072;47.808;7.636;2023-08-01T09:06:15;3.88;;;1.88;;
21030;SDS011;61072;47.808;7.636;2023-08-01T09:08:45;4.10;;;2.10;;
21030;SDS011;61072;47.808;7.636;2023-08-01T09:11:17;4.57;;;1.67;;
21030;SDS011;61072;47.808;7.636;2023-08-01T09:13:44;3.30;;;1.70;;
21030;SDS011;61072;47.808;7.636;2023-08-01T09:16:11;3.33;;;1.50;;
21030;SDS011;61072;47.808;7.636;2023-08-01T09:18:49;2.08;;;1.52;;
21030;SDS011;61072;47.808;7.636;2023-08-01T09:21:19;4.75;;;1.80;;
21030;SDS011;61072;47.808;7.636;2023-08-01T09:23:48;2.40;;;1.50;;
21030;SDS011;61072;47.808;7.636;2023-08-01T09:26:15;3.40;;;2.08;;
21030;SDS011;61072;47.808;7.636;2023-08-01T09:28:43;4.43;;;1.70;;
21030;SDS011;61072;47.808;7.636;2023-08-01T09:31:10;4.72;;;1.83;;
21030;SDS011;61072;47.808;7.636;2023-08-01T09:33:41;2.70;;;1.77;;
21030;SDS011;61072;47.808;7.636;2023-08-01T09:36:08;3.25;;;1.70;;
21030;SDS011;61072;47.808;7.636;2023-08-01T09:38:36;2.85;;;1.58;;
21030;SDS011;61072;47.808;7.636;2023-08-01T09:41:03;2.38;;;1.65;;
21030;SDS011;61072;47.808;7.636;2023-08-01T09:43:34;3.63;;;1.83;;
21030;SDS011;61072;47.808;7.636;2023-08-01T09:46:06;2.92;;;1.90;;
21030;SDS011;61072;47.808;7.636;2023-08-01T09:48:33;2.45;;;1.33;;
21030;SDS011;61072;47.808;7.636;2023-08-01T09:51:04;3.20;;;1.50;;
21030;SDS011;61072;47.808;7.636;2023-08-01T09:53:35;4.25;;;1.30;;
21030;SDS011;61072;47.808;7.636;2023-08-01T09:56:12;2.60;;;1.45;;
21030;SDS011;61072;47.808;7.636;2023-08-01T09:58:42;2.20;;;1.60;;
21030;SDS011;61072;47.808;7.636;2023-08-01T10:01:11;3.17;;;1.60;;
21030;SDS011;61072;47.808;7.636;2023-08-01T10:03:40;2.40;;;1.52;;
21030;SDS011;61072;47.808;7.636;2023-08-01T10:06:13;2.65;;;1.40;;
21030;SDS011;61072;47.808;7.636;2023-08-01T10:08:45;2.97;;;1.67;;
21030;SDS011;61072;47.808;7.636;2023-08-01T10:11:14;3.28;;;1.63;;
21030;SDS011;61072;47.808;7.636;2023-08-01T10:13:42;3.05;;;1.30;;
21030;SDS011;61072;47.808;7.636;2023-08-01T10:16:10;2.67;;;1.55;;
21030;SDS011;61072;47.808;7.636;2023-08-01T10:18:38;2.25;;;1.42;;
21030;SDS011;61072;47.808;7.636;2023-08-01T10:21:10;3.10;;;1.52;;
21030;SDS011;61072;47.808;7.636;2023-08-01T10:23:39;1.27;;;1.10;;
21030;SDS011;61072;47.808;7.636;2023-08-01T10:26:07;1.63;;;1.30;;
21030;SDS011;61072;47.808;7.636;2023-08-01T10:28:41;1.23;;;1.02;;
21030;SDS011;61072;47.808;7.636;2023-08-01T10:31:16;2.38;;;1.20;;
21030;SDS011;61072;47.808;7.636;2023-08-01T10:33:47;1.75;;;1.48;;
21030;SDS011;61072;47.808;7.636;2023-08-01T10:36:21;2.40;;;1.48;;
21030;SDS011;61072;47.808;7.636;2023-08-01T10:38:51;2.42;;;1.52;;
21030;SDS011;61072;47.808;7.636;2023-08-01T10:41:18;3.45;;;1.42;;
21030;SDS011;61072;47.808;7.636;2023-08-01T10:43:45;2.03;;;1.30;;
21030;SDS011;61072;47.808;7.636;2023-08-01T10:46:12;1.60;;;1.20;;
21030;SDS011;61072;47.808;7.636;2023-08-01T10:48:51;1.88;;;1.40;;
21030;SDS011;61072;47.808;7.636;2023-08-01T10:51:19;1.45;;;1.13;;
21030;SDS011;61072;47.808;7.636;2023-08-01T10:53:45;5.53;;;2.35;;
21030;SDS011;61072;47.808;7.636;2023-08-01T10:56:16;1.63;;;1.08;;
21030;SDS011;61072;47.808;7.636;2023-08-01T10:58:45;1.60;;;1.17;;
21030;SDS011;61072;47.808;7.636;2023-08-01T11:01:13;1.88;;;1.10;;
21030;SDS011;61072;47.808;7.636;2023-08-01T11:03:40;2.15;;;1.00;;
21030;SDS011;61072;47.808;7.636;2023-08-01T11:06:08;2.70;;;1.10;;
21030;SDS011;61072;47.808;7.636;2023-08-01T11:08:38;1.77;;;1.30;;
21030;SDS011;61072;47.808;7.636;2023-08-01T11:11:07;2.33;;;1.10;;
21030;SDS011;61072;47.808;7.636;2023-08-01T11:13:39;6.80;;;1.55;;
21030;SDS011;61072;47.808;7.636;2023-08-01T11:16:06;4.00;;;1.45;;
21030;SDS011;61072;47.808;7.636;2023-08-01T11:18:42;1.67;;;1.02;;
21030;SDS011;61072;47.808;7.636;2023-08-01T11:21:10;2.00;;;1.25;;
21030;SDS011;61072;47.808;7.636;2023-08-01T11:23:37;2.75;;;1.45;;
21030;SDS011;61072;47.808;7.636;2023-08-01T11:26:07;1.88;;;1.30;;
21030;SDS011;61072;47.808;7.636;2023-08-01T11:28:35;3.05;;;1.42;;
21030;SDS011;61072;47.808;7.636;2023-08-01T11:31:10;2.38;;;1.35;;
21030;SDS011;61072;47.808;7.636;2023-08-01T11:33:40;4.18;;;1.38;;
21030;SDS011;61072;47.808;7.636;2023-08-01T11:36:06;2.45;;;1.30;;
21030;SDS011;61072;47.808;7.636;2023-08-01T11:38:35;1.80;;;1.20;;
21030;SDS011;61072;47.808;7.636;2023-08-01T11:41:03;2.88;;;1.40;;
21030;SDS011;61072;47.808;7.636;2023-08-01T11:43:43;3.03;;;1.55;;
21030;SDS011;61072;47.808;7.636;2023-08-01T11:46:10;2.25;;;1.38;;
21030;SDS011;61072;47.808;7.636;2023-08-01T11:48:38;1.65;;;1.33;;
21030;SDS011;61072;47.808;7.636;2023-08-01T11:51:05;1.23;;;1.13;;
21030;SDS011;61072;47.808;7.636;2023-08-01T11:53:31;1.63;;;1.20;;
21030;SDS011;61072;47.808;7.636;2023-08-01T11:56:05;1.80;;;1.00;;
21030;SDS011;61072;47.808;7.636;2023-08-01T11:58:33;1.33;;;0.90;;
21030;SDS011;61072;47.808;7.636;2023-08-01T12:01:04;1.75;;;1.20;;
21030;SDS011;61072;47.808;7.636;2023-08-01T12:03:32;1.17;;;0.80;;
21030;SDS011;61072;47.808;7.636;2023-08-01T12:06:22;2.00;;;1.23;;
21030;SDS011;61072;47.808;7.636;2023-08-01T12:08:51;2.28;;;0.98;;
21030;SDS011;61072;47.808;7.636;2023-08-01T12:11:19;1.35;;;0.70;;
21030;SDS011;61072;47.808;7.636;2023-08-01T12:13:46;1.33;;;1.10;;
21030;SDS011;61072;47.808;7.636;2023-08-01T12:16:14;1.15;;;0.70;;
21030;SDS011;61072;47.808;7.636;2023-08-01T12:18:46;4.47;;;0.93;;
21030;SDS011;61072;47.808;7.636;2023-08-01T12:21:25;3.00;;;1.02;;
21030;SDS011;61072;47.808;7.636;2023-08-01T12:23:52;1.50;;;0.80;;
21030;SDS011;61072;47.808;7.636;2023-08-01T12:26:19;1.08;;;0.80;;
21030;SDS011;61072;47.808;7.636;2023-08-01T12:28:47;1.02;;;0.90;;
21030;SDS011;61072;47.808;7.636;2023-08-01T12:31:17;0.98;;;0.43;;
21030;SDS011;61072;47.808;7.636;2023-08-01T12:33:47;0.98;;;0.60;;
21030;SDS011;61072;47.808;7.636;2023-08-01T12:36:15;0.90;;;0.43;;
21030;SDS011;61072;47.808;7.636;2023-08-01T12:38:42;0.82;;;0.45;;
21030;SDS011;61072;47.808;7.636;2023-08-01T12:41:08;0.88;;;0.43;;
21030;SDS011;61072;47.808;7.636;2023-08-01T12:43:35;0.75;;;0.40;;
21030;SDS011;61072;47.808;7.636;2023-08-01T12:46:02;0.40;;;0.40;;
21030;SDS011;61072;47.808;7.636;2023-08-01T12:48:29;0.30;;;0.30;;
21030;SDS011;61072;47.808;7.636;2023-08-01T12:50:56;2.55;;;0.40;;
21030;SDS011;61072;47.808;7.636;2023-08-01T12:53:23;0.82;;;0.32;;
21030;SDS011;61072;47.808;7.636;2023-08-01T12:55:51;0.77;;;0.40;;
21030;SDS011;61072;47.808;7.636;2023-08-01T12:58:18;0.75;;;0.50;;
21030;SDS011;61072;47.808;7.636;2023-08-01T13:00:45;1.48;;;0.43;;
21030;SDS011;61072;47.808;7.636;2023-08-01T13:03:12;1.05;;;0.60;;
21030;SDS011;61072;47.808;7.636;2023-08-01T13:05:39;0.32;;;0.32;;
21030;SDS011;61072;47.808;7.636;2023-08-01T13:08:07;1.20;;;0.40;;
21030;SDS011;61072;47.808;7.636;2023-08-01T13:10:36;0.50;;;0.32;;
21030;SDS011;61072;47.808;7.636;2023-08-01T13:13:04;0.65;;;0.38;;
21030;SDS011;61072;47.808;7.636;2023-08-01T13:15:31;1.52;;;0.43;;
21030;SDS011;61072;47.808;7.636;2023-08-01T13:17:57;0.43;;;0.40;;
21030;SDS011;61072;47.808;7.636;2023-08-01T13:20:24;2.25;;;0.50;;
21030;SDS011;61072;47.808;7.636;2023-08-01T13:22:55;0.30;;;0.30;;
21030;SDS011;61072;47.808;7.636;2023-08-01T13:25:22;0.70;;;0.43;;
21030;SDS011;61072;47.808;7.636;2023-08-01T13:27:48;0.73;;;0.50;;
21030;SDS011;61072;47.808;7.636;2023-08-01T13:30:15;0.98;;;0.50;;
21030;SDS011;61072;47.808;7.636;2023-08-01T13:32:44;0.40;;;0.30;;
21030;SDS011;61072;47.808;7.636;2023-08-01T13:35:12;1.23;;;0.60;;
21030;SDS011;61072;47.808;7.636;2023-08-01T13:37:39;1.25;;;0.50;;
21030;SDS011;61072;47.808;7.636;2023-08-01T13:40:06;0.80;;;0.40;;
21030;SDS011;61072;47.808;7.636;2023-08-01T13:42:34;2.55;;;0.60;;
21030;SDS011;61072;47.808;7.636;2023-08-01T13:45:01;0.50;;;0.50;;
21030;SDS011;61072;47.808;7.636;2023-08-01T13:47:27;1.85;;;0.52;;
21030;SDS011;61072;47.808;7.636;2023-08-01T13:49:54;1.20;;;0.50;;
21030;SDS011;61072;47.808;7.636;2023-08-01T13:52:21;1.40;;;0.57;;
21030;SDS011;61072;47.808;7.636;2023-08-01T13:54:48;2.35;;;0.40;;
21030;SDS011;61072;47.808;7.636;2023-08-01T13:57:14;1.35;;;0.40;;
21030;SDS011;61072;47.808;7.636;2023-08-01T13:59:41;1.35;;;0.70;;
21030;SDS011;61072;47.808;7.636;2023-08-01T14:02:09;0.60;;;0.60;;
21030;SDS011;61072;47.808;7.636;2023-08-01T14:04:38;1.27;;;0.90;;
21030;SDS011;61072;47.808;7.636;2023-08-01T14:07:05;0.40;;;0.30;;
21030;SDS011;61072;47.808;7.636;2023-08-01T14:09:32;0.43;;;0.40;;
21030;SDS011;61072;47.808;7.636;2023-08-01T14:12:02;3.05;;;0.57;;
21030;SDS011;61072;47.808;7.636;2023-08-01T14:14:30;1.13;;;0.50;;
21030;SDS011;61072;47.808;7.636;2023-08-01T14:16:56;0.75;;;0.55;;
21030;SDS011;61072;47.808;7.636;2023-08-01T14:19:23;2.15;;;0.50;;
21030;SDS011;61072;47.808;7.636;2023-08-01T14:21:56;5.07;;;0.90;;
21030;SDS011;61072;47.808;7.636;2023-08-01T14:24:23;0.80;;;0.50;;
21030;SDS011;61072;47.808;7.636;2023-08-01T14:26:50;0.80;;;0.60;;
21030;SDS011;61072;47.808;7.636;2023-08-01T14:29:18;1.42;;;0.40;;
21030;SDS011;61072;47.808;7.636;2023-08-01T14:31:48;0.85;;;0.52;;
21030;SDS011;61072;47.808;7.636;2023-08-01T14:34:18;1.33;;;0.65;;
21030;SDS011;61072;47.808;7.636;2023-08-01T14:36:45;1.95;;;1.13;;
21030;SDS011;61072;47.808;7.636;2023-08-01T14:39:12;0.60;;;0.52;;
21030;SDS011;61072;47.808;7.636;2023-08-01T14:41:48;1.13;;;0.65;;
21030;SDS011;61072;47.808;7.636;2023-08-01T14:44:18;0.60;;;0.52;;
21030;SDS011;61072;47.808;7.636;2023-08-01T14:46:45;1.50;;;0.50;;
21030;SDS011;61072;47.808;7.636;2023-08-01T14:49:12;0.82;;;0.70;;
21030;SDS011;61072;47.808;7.636;2023-08-01T14:51:39;0.82;;;0.60;;
21030;SDS011;61072;47.808;7.636;2023-08-01T14:54:05;2.17;;;0.73;;
21030;SDS011;61072;47.808;7.636;2023-08-01T14:56:32;1.05;;;0.68;;
21030;SDS011;61072;47.808;7.636;2023-08-01T14:58:59;1.23;;;0.80;;
21030;SDS011;61072;47.808;7.636;2023-08-01T15:01:25;1.92;;;0.80;;
21030;SDS011;61072;47.808;7.636;2023-08-01T15:03:53;3.20;;;0.75;;
21030;SDS011;61072;47.808;7.636;2023-08-01T15:06:20;1.73;;;0.77;;
21030;SDS011;61072;47.808;7.636;2023-08-01T15:08:47;0.63;;;0.60;;
21030;SDS011;61072;47.808;7.636;2023-08-01T15:11:13;2.33;;;0.63;;
21030;SDS011;61072;47.808;7.636;2023-08-01T15:13:40;1.83;;;0.60;;
21030;SDS011;61072;47.808;7.636;2023-08-01T15:16:10;1.85;;;0.55;;
21030;SDS011;61072;47.808;7.636;2023-08-01T15:18:40;1.85;;;0.77;;
21030;SDS011;61072;47.808;7.636;2023-08-01T15:21:07;1.30;;;0.68;;
21030;SDS011;61072;47.808;7.636;2023-08-01T15:23:34;2.22;;;0.95;;
21030;SDS011;61072;47.808;7.636;2023-08-01T15:26:00;1.30;;;0.80;;
21030;SDS011;61072;47.808;7.636;2023-08-01T15:28:27;0.95;;;0.68;;
21030;SDS011;61072;47.808;7.636;2023-08-01T15:31:01;2.58;;;0.70;;
21030;SDS011;61072;47.808;7.636;2023-08-01T15:33:29;1.75;;;0.77;;
21030;SDS011;61072;47.808;7.636;2023-08-01T15:36:01;1.58;;;0.70;;
21030;SDS011;61072;47.808;7.636;2023-08-01T15:38:30;1.48;;;0.77;;
21030;SDS011;61072;47.808;7.636;2023-08-01T15:40:58;2.35;;;0.95;;
21030;SDS011;61072;47.808;7.636;2023-08-01T15:43:28;1.20;;;0.82;;
21030;SDS011;61072;47.808;7.636;2023-08-01T15:45:56;1.10;;;1.00;;
21030;SDS011;61072;47.808;7.636;2023-08-01T15:48:23;1.58;;;0.90;;
21030;SDS011;61072;47.808;7.636;2023-08-01T15:50:49;1.27;;;0.95;;
21030;SDS011;61072;47.808;7.636;2023-08-01T15:53:16;1.63;;;0.85;;
21030;SDS011;61072;47.808;7.636;2023-08-01T15:55:43;1.60;;;0.90;;
21030;SDS011;61072;47.808;7.636;2023-08-01T15:58:09;2.00;;;1.00;;
21030;SDS011;61072;47.808;7.636;2023-08-01T16:00:36;3.90;;;1.27;;
21030;SDS011;61072;47.808;7.636;2023-08-01T16:03:04;4.85;;;0.90;;
21030;SDS011;61072;47.808;7.636;2023-08-01T16:05:31;1.05;;;0.85;;
21030;SDS011;61072;47.808;7.636;2023-08-01T16:07:58;1.27;;;0.88;;
21030;SDS011;61072;47.808;7.636;2023-08-01T16:10:25;2.80;;;1.00;;
21030;SDS011;61072;47.808;7.636;2023-08-01T16:12:52;0.70;;;0.70;;
21030;SDS011;61072;47.808;7.636;2023-08-01T16:15:18;1.60;;;1.30;;
21030;SDS011;61072;47.808;7.636;2023-08-01T16:17:45;3.05;;;1.17;;
21030;SDS011;61072;47.808;7.636;2023-08-01T16:20:12;1.55;;;0.90;;
21030;SDS011;61072;47.808;7.636;2023-08-01T16:22:41;5.65;;;1.67;;
21030;SDS011;61072;47.808;7.636;2023-08-01T16:25:09;1.20;;;0.90;;
21030;SDS011;61072;47.808;7.636;2023-08-01T16:27:36;3.33;;;1.02;;
21030;SDS011;61072;47.808;7.636;2023-08-01T16:30:02;3.10;;;1.15;;
21030;SDS011;61072;47.808;7.636;2023-08-01T16:32:29;1.20;;;1.00;;
21030;SDS011;61072;47.808;7.636;2023-08-01T16:34:56;2.00;;;0.90;;
21030;SDS011;61072;47.808;7.636;2023-08-01T16:37:23;1.88;;;1.27;;
21030;SDS011;61072;47.808;7.636;2023-08-01T16:39:50;1.88;;;1.10;;
21030;SDS011;61072;47.808;7.636;2023-08-01T16:42:16;1.48;;;0.90;;
21030;SDS011;61072;47.808;7.636;2023-08-01T16:44:43;1.85;;;0.80;;
21030;SDS011;61072;47.808;7.636;2023-08-01T16:47:10;2.42;;;0.60;;
21030;SDS011;61072;47.808;7.636;2023-08-01T16:49:37;2.15;;;0.80;;
21030;SDS011;61072;47.808;7.636;2023-08-01T16:52:04;1.85;;;1.15;;
21030;SDS011;61072;47.808;7.636;2023-08-01T16:54:31;1.65;;;0.77;;
21030;SDS011;61072;47.808;7.636;2023-08-01T16:56:58;2.67;;;0.82;;
21030;SDS011;61072;47.808;7.636;2023-08-01T16:59:25;1.73;;;0.90;;
21030;SDS011;61072;47.808;7.636;2023-08-01T17:01:51;1.23;;;0.70;;
21030;SDS011;61072;47.808;7.636;2023-08-01T17:04:18;2.63;;;0.90;;
21030;SDS011;61072;47.808;7.636;2023-08-01T17:06:45;2.53;;;0.98;;
21030;SDS011;61072;47.808;7.636;2023-08-01T17:09:12;1.15;;;0.70;;
21030;SDS011;61072;47.808;7.636;2023-08-01T17:11:39;0.93;;;0.52;;
21030;SDS011;61072;47.808;7.636;2023-08-01T17:14:06;1.95;;;0.68;;
21030;SDS011;61072;47.808;7.636;2023-08-01T17:16:33;3.03;;;0.93;;
21030;SDS011;61072;47.808;7.636;2023-08-01T17:18:59;2.75;;;1.00;;
21030;SDS011;61072;47.808;7.636;2023-08-01T17:21:26;2.25;;;0.90;;
21030;SDS011;61072;47.808;7.636;2023-08-01T17:23:53;5.65;;;1.40;;
21030;SDS011;61072;47.808;7.636;2023-08-01T17:26:20;3.63;;;1.20;;
21030;SDS011;61072;47.808;7.636;2023-08-01T17:28:46;2.13;;;1.15;;
21030;SDS011;61072;47.808;7.636;2023-08-01T17:31:13;1.40;;;0.90;;
21030;SDS011;61072;47.808;7.636;2023-08-01T17:33:40;1.40;;;0.75;;
21030;SDS011;61072;47.808;7.636;2023-08-01T17:36:07;1.63;;;1.10;;
21030;SDS011;61072;47.808;7.636;2023-08-01T17:38:33;2.15;;;0.93;;
21030;SDS011;61072;47.808;7.636;2023-08-01T17:41:20;6.63;;;1.30;;
21030;SDS011;61072;47.808;7.636;2023-08-01T17:43:52;4.47;;;1.00;;
21030;SDS011;61072;47.808;7.636;2023-08-01T17:46:20;3.10;;;1.02;;
21030;SDS011;61072;47.808;7.636;2023-08-01T17:48:47;1.75;;;0.80;;
21030;SDS011;61072;47.808;7.636;2023-08-01T17:51:14;2.30;;;1.00;;
21030;SDS011;61072;47.808;7.636;2023-08-01T17:53:43;1.55;;;1.02;;
21030;SDS011;61072;47.808;7.636;2023-08-01T17:56:11;2.13;;;0.80;;
21030;SDS011;61072;47.808;7.636;2023-08-01T17:58:38;1.92;;;0.93;;
21030;SDS011;61072;47.808;7.636;2023-08-01T18:01:08;3.25;;;1.02;;
21030;SDS011;61072;47.808;7.636;2023-08-01T18:03:35;2.67;;;1.10;;
21030;SDS011;61072;47.808;7.636;2023-08-01T18:06:04;2.15;;;1.10;;
21030;SDS011;61072;47.808;7.636;2023-08-01T18:08:35;2.13;;;1.05;;
21030;SDS011;61072;47.808;7.636;2023-08-01T18:11:03;3.22;;;1.00;;
21030;SDS011;61072;47.808;7.636;2023-08-01T18:13:39;2.20;;;1.00;;
21030;SDS011;61072;47.808;7.636;2023-08-01T18:16:19;2.42;;;0.88;;
21030;SDS011;61072;47.808;7.636;2023-08-01T18:18:46;2.38;;;0.90;;
21030;SDS011;61072;47.808;7.636;2023-08-01T18:21:14;2.08;;;0.82;;
21030;SDS011;61072;47.808;7.636;2023-08-01T18:23:41;1.80;;;1.00;;
21030;SDS011;61072;47.808;7.636;2023-08-01T18:26:09;3.22;;;1.08;;
21030;SDS011;61072;47.808;7.636;2023-08-01T18:28:48;3.10;;;0.90;;
21030;SDS011;61072;47.808;7.636;2023-08-01T18:31:16;1.88;;;1.00;;
21030;SDS011;61072;47.808;7.636;2023-08-01T18:33:43;2.25;;;1.00;;
21030;SDS011;61072;47.808;7.636;2023-08-01T18:36:15;3.20;;;0.93;;
21030;SDS011;61072;47.808;7.636;2023-08-01T18:38:43;1.88;;;0.73;;
21030;SDS011;61072;47.808;7.636;2023-08-01T18:41:11;5.22;;;1.20;;
21030;SDS011;61072;47.808;7.636;2023-08-01T18:43:38;4.45;;;1.00;;
21030;SDS011;61072;47.808;7.636;2023-08-01T18:46:05;3.20;;;1.17;;
21030;SDS011;61072;47.808;7.636;2023-08-01T18:48:33;4.13;;;1.50;;
21030;SDS011;61072;47.808;7.636;2023-08-01T18:51:08;1.33;;;0.80;;
21030;SDS011;61072;47.808;7.636;2023-08-01T18:53:38;2.08;;;0.98;;
21030;SDS011;61072;47.808;7.636;2023-08-01T18:56:09;1.35;;;0.90;;
21030;SDS011;61072;47.808;7.636;2023-08-01T18:58:44;2.58;;;1.10;;
21030;SDS011;61072;47.808;7.636;2023-08-01T19:01:12;3.30;;;1.00;;
21030;SDS011;61072;47.808;7.636;2023-08-01T19:03:41;5.22;;;1.08;;
21030;SDS011;61072;47.808;7.636;2023-08-01T19:06:09;5.15;;;1.10;;
21030;SDS011;61072;47.808;7.636;2023-08-01T19:08:36;5.38;;;1.85;;
21030;SDS011;61072;47.808;7.636;2023-08-01T19:11:03;4.20;;;0.90;;
21030;SDS011;61072;47.808;7.636;2023-08-01T19:13:30;2.47;;;0.90;;
21030;SDS011;61072;47.808;7.636;2023-08-01T19:15:57;2.10;;;1.02;;
21030;SDS011;61072;47.808;7.636;2023-08-01T19:18:26;1.50;;;1.00;;
21030;SDS011;61072;47.808;7.636;2023-08-01T19:20:54;3.15;;;1.25;;
21030;SDS011;61072;47.808;7.636;2023-08-01T19:23:21;3.90;;;0.90;;
21030;SDS011;61072;47.808;7.636;2023-08-01T19:25:49;3.53;;;1.23;;
21030;SDS011;61072;47.808;7.636;2023-08-01T19:28:17;2.83;;;1.52;;
21030;SDS011;61072;47.808;7.636;2023-08-01T19:30:46;2.58;;;0.93;;
21030;SDS011;61072;47.808;7.636;2023-08-01T19:33:14;1.90;;;1.20;;
21030;SDS011;61072;47.808;7.636;2023-08-01T19:35:41;6.15;;;1.30;;
21030;SDS011;61072;47.808;7.636;2023-08-01T19:38:09;3.05;;;1.08;;
21030;SDS011;61072;47.808;7.636;2023-08-01T19:40:39;2.50;;;1.42;;
